• Join FlightAware (Why Join?)
  • Login
  • US Flag 
01:21AM EDT


 

Airport Tracker/Info


-or-


 

Live Flight TrackerFlight Track Log ✈ AVN10 ✈ 30-Mar-2014 ✈ NVVV / VLI - YSSY / SYD

Flight Track Log - Related Links

Times and Time Zones

All times are in EDT time to prevent confusion due to time zone crossing. See the AVN10 flight status page for this flight to view local times or setup timezone preferences in your user account.

Time Position Orientation Groundspeed Altitude Reporting Facility
EDT Latitude Longitude Course Direction KTS MPH feet Rate Location/Type
04:01PM -17.8753 168.1643 220° Southwest  Level Estimated
04:02PM -17.9633 168.0865 220° Southwest  Level Estimated
04:03PM -18.0512 168.0086 220° Southwest  Level Estimated
04:04PM -18.1391 167.9306 220° Southwest  Level Estimated
04:05PM -18.2270 167.8525 220° Southwest  Level Estimated
04:06PM -18.3148 167.7743 220° Southwest  Level Estimated
04:07PM -18.4026 167.6961 220° Southwest  Level Estimated
04:08PM -18.4904 167.6178 220° Southwest  Level Estimated
04:09PM -18.5781 167.5394 220° Southwest  Level Estimated
04:10PM -18.6659 167.4609 220° Southwest  Level Estimated
04:11PM -18.7535 167.3823 220° Southwest  Level Estimated
04:12PM -18.8412 167.3037 220° Southwest  Level Estimated
04:13PM -18.9288 167.2249 220° Southwest  Level Estimated
04:14PM -19.0164 167.1461 220° Southwest  Level Estimated
04:15PM -19.1039 167.0672 220° Southwest  Level Estimated
04:16PM -19.1914 166.9883 220° Southwest  Level Estimated
04:17PM -19.2789 166.9092 220° Southwest  Level Estimated
04:18PM -19.3663 166.8301 220° Southwest  Level Estimated
04:19PM -19.4537 166.7509 221° Southwest  Level Estimated
04:20PM -19.5411 166.6715 221° Southwest  Level Estimated
04:21PM -19.6284 166.5921 221° Southwest  Level Estimated
04:22PM -19.7157 166.5126 221° Southwest  Level Estimated
04:23PM -19.8030 166.4331 221° Southwest  Level Estimated
04:24PM -19.8902 166.3534 221° Southwest  Level Estimated
04:25PM -19.9774 166.2737 221° Southwest  Level Estimated
04:26PM -20.0646 166.1938 221° Southwest  Level Estimated
04:27PM -20.1517 166.1139 221° Southwest  Level Estimated
04:28PM -20.2388 166.0339 221° Southwest  Level Estimated
04:29PM -20.3259 165.9538 221° Southwest  Level Estimated
04:30PM -20.4129 165.8736 221° Southwest  Level Estimated
04:31PM -20.4999 165.7933 221° Southwest  Level Estimated
04:32PM -20.5868 165.7129 221° Southwest  Level Estimated
04:33PM -20.6737 165.6325 221° Southwest  Level Estimated
04:34PM -20.7606 165.5519 221° Southwest  Level Estimated
04:35PM -20.8474 165.4713 221° Southwest  Level Estimated
04:36PM -20.9342 165.3905 221° Southwest  Level Estimated
04:37PM -21.0210 165.3097 221° Southwest  Level Estimated
04:38PM -21.1077 165.2287 221° Southwest  Level Estimated
04:39PM -21.1943 165.1477 221° Southwest  Level Estimated
04:40PM -21.2810 165.0666 221° Southwest  Level Estimated
04:41PM -21.3676 164.9854 221° Southwest  Level Estimated
04:42PM -21.4541 164.9041 221° Southwest  Level Estimated
04:43PM -21.5407 164.8227 221° Southwest  Level Estimated
04:44PM -21.6271 164.7411 221° Southwest  Level Estimated
04:45PM -21.7136 164.6595 221° Southwest  Level Estimated
04:46PM -21.8000 164.5778 221° Southwest  Level Estimated
04:47PM -21.8864 164.4960 221° Southwest  Level Estimated
04:48PM -21.9727 164.4141 221° Southwest  Level Estimated
04:49PM -22.0590 164.3321 221° Southwest  Level Estimated
04:50PM -22.1452 164.2500 221° Southwest  Level Estimated
04:51PM -22.2314 164.1678 221° Southwest  Level Estimated
04:52PM -22.3176 164.0855 221° Southwest  Level Estimated
04:53PM -22.4037 164.0031 221° Southwest  Level Estimated
04:54PM -22.4897 163.9206 222° Southwest  Level Estimated
04:55PM -22.5758 163.8380 222° Southwest  Level Estimated
04:56PM -22.6618 163.7553 222° Southwest  Level Estimated
04:57PM -22.7477 163.6725 222° Southwest  Level Estimated
04:58PM -22.8336 163.5896 222° Southwest  Level Estimated
04:59PM -22.9195 163.5065 222° Southwest  Level Estimated
05:00PM -23.0053 163.4234 222° Southwest  Level Estimated
05:01PM -23.0911 163.3402 222° Southwest  Level Estimated
05:02PM -23.1768 163.2568 222° Southwest  Level Estimated
05:03PM -23.2625 163.1734 222° Southwest  Level Estimated
05:04PM -23.3481 163.0898 222° Southwest  Level Estimated
05:05PM -23.4337 163.0062 222° Southwest  Level Estimated
05:06PM -23.5193 162.9224 222° Southwest  Level Estimated
05:07PM -23.6048 162.8385 222° Southwest  Level Estimated
05:08PM -23.6903 162.7545 222° Southwest  Level Estimated
05:09PM -23.7757 162.6704 222° Southwest  Level Estimated
05:10PM -23.8611 162.5862 222° Southwest  Level Estimated
05:11PM -23.9464 162.5019 222° Southwest  Level Estimated
05:12PM -24.0317 162.4174 222° Southwest  Level Estimated
05:12PM -24.5857 163.4370 224° Southwest 36,000  Level Aus ATC (Calculated)
05:13PM -24.6440 163.3724 224° Southwest 36,000  Level Aus ATC (Calculated)
05:15PM -24.7951 163.2001 226° Southwest  Level Estimated
05:16PM -24.8725 163.1116 226° Southwest  Level Estimated
05:16PM -24.9304 163.0533 224° Southwest 36,000  Level Aus ATC (Calculated)
05:17PM -25.0358 162.9353 224° Southwest 36,000  Level Aus ATC (Calculated)
05:18PM -25.1145 162.8471 225° Southwest  Level FlightAware Approximate
05:19PM -25.1889 162.7635 224° Southwest 36,000  Level Aus ATC (Calculated)
05:19PM -25.1931 162.7588 225° Southwest  Level FlightAware Approximate
05:20PM -25.2663 162.6764 226° Southwest  Level FlightAware Approximate
05:21PM -25.3436 162.5891 226° Southwest  Level FlightAware Approximate
05:22PM -25.4209 162.5018 226° Southwest  Level FlightAware Approximate
05:23PM -25.4981 162.4143 226° Southwest  Level FlightAware Approximate
05:24PM -25.5753 162.3267 226° Southwest  Level FlightAware Approximate
05:25PM -25.6524 162.2390 226° Southwest  Level FlightAware Approximate
05:26PM -25.7295 162.1512 226° Southwest  Level FlightAware Approximate
05:27PM -25.8065 162.0633 226° Southwest  Level FlightAware Approximate
05:28PM -25.8835 161.9753 226° Southwest  Level FlightAware Approximate
05:29PM -25.9604 161.8871 226° Southwest  Level FlightAware Approximate
05:30PM -26.0373 161.7988 226° Southwest  Level FlightAware Approximate
05:31PM -26.1141 161.7104 226° Southwest  Level FlightAware Approximate
05:32PM -26.1908 161.6219 226° Southwest  Level FlightAware Approximate
05:33PM -26.2675 161.5333 226° Southwest  Level FlightAware Approximate
05:34PM -26.3442 161.4446 226° Southwest  Level FlightAware Approximate
05:35PM -26.4208 161.3557 226° Southwest  Level FlightAware Approximate
05:36PM -26.4973 161.2668 226° Southwest  Level FlightAware Approximate
05:37PM -26.5738 161.1777 226° Southwest  Level FlightAware Approximate
05:38PM -26.6502 161.0885 226° Southwest  Level FlightAware Approximate
05:39PM -26.7266 160.9992 226° Southwest  Level FlightAware Approximate
05:39PM -27.2110 160.4282 223° Southwest 36,000  Level Aus ATC (Calculated)
05:40PM -26.8029 160.9097 226° Southwest  Level FlightAware Approximate
05:41PM -27.2958 160.3275 227° Southwest  Level FlightAware Approximate
05:41PM -27.4075 160.1945 223° Southwest 36,000  Level Aus ATC (Calculated)
05:42PM -27.3717 160.2371 227° Southwest  Level FlightAware Approximate
05:43PM -27.4921 160.0934 227° Southwest  Level FlightAware Approximate
05:43PM -27.6199 159.9403 223° Southwest 36,000  Level Aus ATC (Calculated)
05:44PM -27.5679 160.0027 227° Southwest  Level FlightAware Approximate
05:44PM -27.6597 159.8925 223° Southwest 36,000  Level Aus ATC (Calculated)
05:46PM -27.7819 159.7454 227° Southwest  Level FlightAware Approximate
05:47PM -27.8574 159.6542 227° Southwest  Level FlightAware Approximate
05:47PM -27.9202 159.5782 222° Southwest 36,000  Level Aus ATC (Calculated)
05:48PM -28.0039 159.4768 222° Southwest 36,000  Level Aus ATC (Calculated)
05:50PM -28.1394 159.3120 227° Southwest  Level FlightAware Approximate
05:51PM -28.2146 159.2202 227° Southwest  Level FlightAware Approximate
05:52PM -28.2898 159.1283 227° Southwest  Level FlightAware Approximate
05:52PM -28.3359 159.0718 220° Southwest 36,000  Level Aus ATC (Calculated)
05:54PM -28.4818 158.8924 227° Southwest  Level FlightAware Approximate
05:55PM -28.5606 158.7952 227° Southwest  Level FlightAware Approximate
05:56PM -28.6393 158.6978 227° Southwest  Level FlightAware Approximate
05:57PM -28.7180 158.6004 227° Southwest  Level FlightAware Approximate
05:57PM -28.7836 158.5188 214° Southwest 36,000  Level Aus ATC (Calculated)
05:59PM -28.9314 158.3346 227° Southwest  Level FlightAware Approximate
06:00PM -29.0098 158.2366 228° Southwest  Level FlightAware Approximate
06:01PM -29.0881 158.1384 228° Southwest  Level FlightAware Approximate
06:02PM -29.1663 158.0401 228° Southwest  Level FlightAware Approximate
06:02PM -29.2290 157.9612 157° South 36,000  Level Aus ATC (Calculated)
06:04PM -29.3760 157.7754 228° Southwest  Level FlightAware Approximate
06:05PM -29.4540 157.6765 228° Southwest  Level FlightAware Approximate
06:06PM -29.5319 157.5775 228° Southwest  Level FlightAware Approximate
06:07PM -29.6097 157.4783 228° Southwest  Level FlightAware Approximate
06:07PM -29.6318 157.4501 65° Northeast 36,000  Level Aus ATC (Calculated)
06:09PM -29.7795 157.2611 228° Southwest  Level FlightAware Approximate
06:09PM -29.7924 157.2445 60° Northeast 36,000  Level Aus ATC (Calculated)
06:10PM -29.9126 157.0899 58° Northeast 36,000 480 Level Aus ATC (Calculated)
06:11PM -29.3928 158.0396 228° Southwest 426 490 37,100 1,380 Climbing Aus ATC (RADAR)
06:11PM -29.4410 157.9872 223° Southwest 415 478 38,000 1,260 Climbing Aus ATC (RADAR)
06:13PM -29.5582 157.8614 223° Southwest 406 467 39,700 1,080 Climbing Aus ATC (RADAR)
06:13PM -29.5837 157.8326 224° Southwest 402 463 39,900 540 Climbing Aus ATC (RADAR)
06:14PM -29.6295 157.7814 224° Southwest 398 458 40,200 180 Climbing Aus ATC (RADAR)
06:14PM -29.6899 157.7146 224° Southwest 400 460 40,200  Level Aus ATC (RADAR)
06:15PM -29.7242 157.6771 223° Southwest 402 463 40,200  Level Aus ATC (RADAR)
06:15PM -29.7740 157.6241 223° Southwest 407 468 40,200 -120 Level Aus ATC (RADAR)
06:16PM -29.8277 157.5643 224° Southwest 407 468 40,100  Descending Aus ATC (RADAR)
06:17PM -29.8973 157.4885 223° Southwest 409 471 40,200 60 Climbing Aus ATC (RADAR)
06:17PM -29.9168 157.4667 224° Southwest 407 468 40,200 -120 Level Aus ATC (RADAR)
06:18PM -29.9643 157.4141 224° Southwest 406 467 40,100  Descending Aus ATC (RADAR)
06:18PM -30.0058 157.3648 226° Southwest 392 451 40,200 60 Climbing Aus ATC (RADAR)
06:19PM -30.0603 157.3047 224° Southwest 398 458 40,200 -120 Level Aus ATC (RADAR)
06:19PM -30.0949 157.2668 224° Southwest 404 465 40,100  Descending Aus ATC (RADAR)
06:20PM -30.1381 157.2200 223° Southwest 413 475 40,200  Climbing Aus ATC (RADAR)
06:21PM -30.2061 157.1442 224° Southwest 409 471 40,100  Descending Aus ATC (RADAR)
06:21PM -30.2384 157.1075 224° Southwest 403 464 40,200  Climbing Aus ATC (RADAR)
06:22PM -30.3275 157.0088 224° Southwest 408 470 40,100  Descending Aus ATC (RADAR)
06:22PM -30.3550 156.9783 224° Southwest 409 471 40,200 60 Climbing Aus ATC (RADAR)
06:23PM -30.4029 156.9248 224° Southwest 410 472 40,200  Level Aus ATC (RADAR)
06:23PM -30.4439 156.8787 224° Southwest 410 472 40,200  Level Aus ATC (RADAR)
06:24PM -30.4989 156.8172 224° Southwest 412 474 40,200  Level Aus ATC (RADAR)
06:25PM -30.5482 156.7621 224° Southwest 417 480 40,200  Level Aus ATC (RADAR)
06:25PM -30.5951 156.7092 224° Southwest 412 474 40,200  Level Aus ATC (RADAR)
06:26PM -30.6429 156.6554 224° Southwest 411 473 40,200  Level Aus ATC (RADAR)
06:26PM -30.6909 156.6013 224° Southwest 412 474 40,200  Level Aus ATC (RADAR)
06:27PM -30.7663 156.5165 224° Southwest 412 474 40,200  Level Aus ATC (RADAR)
06:28PM -30.8144 156.4621 224° Southwest 413 475 40,200  Level Aus ATC (RADAR)
06:29PM -30.8628 156.4075 224° Southwest 414 476 40,200  Level Aus ATC (RADAR)
06:29PM -30.9111 156.3529 224° Southwest 416 479 40,200  Level Aus ATC (RADAR)
06:30PM -30.9592 156.2982 224° Southwest 416 479 40,200  Level Aus ATC (RADAR)
06:30PM -31.0004 156.2509 224° Southwest 415 478 40,200  Level Aus ATC (RADAR)
06:31PM -31.0557 156.1883 224° Southwest 416 479 40,200  Level Aus ATC (RADAR)
06:31PM -31.1044 156.1331 224° Southwest 418 481 40,200  Level Aus ATC (RADAR)
06:33PM -31.2081 156.0144 224° Southwest 418 481 40,200  Level Aus ATC (RADAR)
06:33PM -31.2355 155.9830 224° Southwest 417 480 40,200  Level Aus ATC (RADAR)
06:34PM -31.2836 155.9278 224° Southwest 417 480 40,200  Level Aus ATC (RADAR)
06:34PM -31.3318 155.8728 224° Southwest 415 478 40,200  Level Aus ATC (RADAR)
06:35PM -31.3799 155.8176 224° Southwest 416 479 40,200  Level Aus ATC (RADAR)
06:35PM -31.4275 155.7626 225° Southwest 414 476 40,200  Level Aus ATC (RADAR)
06:36PM -31.4816 155.7000 225° Southwest 411 473 40,200 -180 Level Aus ATC (RADAR)
06:37PM -31.5171 155.6587 224° Southwest 410 472 40,000  Descending FlightAware ADS-B (YPLB)
06:37PM -31.5288 155.6454 225° Southwest 410 472 40,200  Climbing Aus ATC (RADAR)
06:37PM -31.5602 155.6089 224° Southwest 410 472 40,000 -240 Descending FlightAware ADS-B (YPLB)
06:38PM -31.6132 155.5476 224° Southwest 413 475 40,000  Level FlightAware ADS-B (YPLB)
06:38PM -31.6544 155.4999 224° Southwest 415 478 40,000  Level FlightAware ADS-B (YPLB)
06:39PM -31.6973 155.4501 224° Southwest 414 476 40,000 180 Level FlightAware ADS-B (YPLB)
06:39PM -31.7383 155.4025 224° Southwest 412 474 40,200  Climbing Aus ATC (RADAR)
06:40PM -31.7780 155.3562 224° Southwest 416 479 40,000 -180 Descending FlightAware ADS-B (YPLB)
06:40PM -31.8310 155.2944 224° Southwest 417 480 40,000  Level FlightAware ADS-B (YPLB)
06:41PM -31.8735 155.2448 225° Southwest 418 481 40,000  Level FlightAware ADS-B (YPLB)
06:42PM -31.9281 155.1808 225° Southwest 422 486 40,000  Level FlightAware ADS-B (YPLB)
06:42PM -31.9808 155.1190 224° Southwest 423 487 40,000 120 Level FlightAware ADS-B (YPLB)
06:43PM -32.0271 155.0650 224° Southwest 423 487 40,200  Climbing Aus ATC (RADAR)
06:43PM -32.0291 155.0626 224° Southwest 426 490 40,000 -300 Descending FlightAware ADS-B (YPLB)
06:43PM -32.0820 155.0003 225° Southwest 428 493 40,000  Level FlightAware ADS-B (YPLB)
06:44PM -32.1255 154.9492 225° Southwest 429 494 40,000  Level FlightAware ADS-B (YPLB)
06:44PM -32.1674 154.8998 225° Southwest 430 495 40,000  Level FlightAware ADS-B (YPLB)
06:45PM -32.2112 154.8482 225° Southwest 432 497 40,000  Level FlightAware ADS-B (YPLB)
06:45PM -32.2549 154.7966 225° Southwest 433 498 40,000  Level FlightAware ADS-B (YPLB)
06:46PM -32.2970 154.7465 225° Southwest 434 499 40,000  Level FlightAware ADS-B (YPLB)
06:46PM -32.3392 154.6964 225° Southwest 434 499 40,000  Level FlightAware ADS-B (YPLB)
06:47PM -32.3959 154.6291 225° Southwest 436 502 40,000  Level FlightAware ADS-B (YPLB)
06:48PM -32.4387 154.5783 225° Southwest 437 503 40,000  Level FlightAware ADS-B (YPLB)
06:48PM -32.4969 154.5089 225° Southwest 438 504 40,000  Level FlightAware ADS-B (YPLB)
06:49PM -32.5395 154.4579 225° Southwest 438 504 40,000 180 Level FlightAware ADS-B (YPLB)
06:49PM -32.5859 154.4029 225° Southwest 439 505 40,200  Climbing Aus ATC (RADAR)
06:50PM -32.6218 154.3595 225° Southwest 434 499 40,000 -240 Descending FlightAware ADS-B (YPLB)
06:50PM -32.6669 154.3054 225° Southwest 435 501 40,000  Level FlightAware ADS-B (YPLB)
06:51PM -32.7232 154.2379 225° Southwest 435 501 40,000  Level FlightAware ADS-B (YPLB)
06:52PM -32.7793 154.1706 225° Southwest 437 503 40,000  Level FlightAware ADS-B (YPLB)
06:52PM -32.8357 154.1023 225° Southwest 436 502 40,000  Level FlightAware ADS-B (YPLB)
06:52PM -32.8501 154.0848 225° Southwest 436 502 40,000  Level FlightAware ADS-B (YPLB)
06:53PM -32.8950 154.0304 225° Southwest 436 502 40,000  Level FlightAware ADS-B (YPLB)
06:53PM -32.9388 153.9774 225° Southwest 435 501 40,000  Level FlightAware ADS-B (YPLB)
06:54PM -32.9932 153.9116 225° Southwest 435 501 40,000  Level FlightAware ADS-B (YPLB)
06:55PM -33.0361 153.8598 225° Southwest 434 499 40,000  Level FlightAware ADS-B (YPLB)
06:55PM -33.0785 153.8084 225° Southwest 433 498 40,000  Level FlightAware ADS-B (YPLB)
06:56PM -33.1301 153.7456 226° Southwest 431 496 40,000  Level FlightAware ADS-B (YRPA)
06:56PM -33.1767 153.6884 225° Southwest 430 495 40,000 120 Level FlightAware ADS-B (YPLB)
06:57PM -33.2269 153.6276 225° Southwest 419 482 40,200  Climbing Aus ATC (RADAR)
06:57PM -33.2302 153.6231 225° Southwest 430 495 40,000 -420 Descending FlightAware ADS-B (YPLB)
06:57PM -33.2729 153.5708 225° Southwest 429 494 40,000  Level FlightAware ADS-B (YPLB)
06:58PM -33.2976 153.5407 225° Southwest 429 494 40,000  Level FlightAware ADS-B (YPLB)
06:58PM -33.3413 153.4874 225° Southwest 428 493 40,000  Level FlightAware ADS-B (YPLB)
06:59PM -33.3858 153.4325 225° Southwest 428 493 40,000  Level FlightAware ADS-B (YPLB)
06:59PM -33.4370 153.3695 225° Southwest 427 491 40,000  Level FlightAware ADS-B (YPLB)
07:00PM -33.4801 153.3165 225° Southwest 427 491 40,000  Level FlightAware ADS-B (YPLB)
07:01PM -33.5329 153.2511 226° Southwest 427 491 40,000  Level FlightAware ADS-B (YPLB)
07:01PM -33.5750 153.1990 226° Southwest 427 491 40,000  Level FlightAware ADS-B (YPLB)
07:02PM -33.6178 153.1461 226° Southwest 427 491 40,000 -420 Level FlightAware ADS-B (YPLB)
07:02PM -33.6574 153.0968 226° Southwest 423 487 39,600 -1,800 Descending FlightAware ADS-B (YPLB)
07:03PM -33.7121 153.0290 226° Southwest 423 487 37,900 -2,580 Descending FlightAware ADS-B (YRPA)
07:03PM -33.7504 152.9812 226° Southwest 424 488 36,600 -2,880 Descending FlightAware ADS-B (YPLB)
07:04PM -33.7938 152.9265 226° Southwest 428 493 35,000 -3,180 Descending FlightAware ADS-B (YPLB)
07:04PM -33.8343 152.8762 226° Southwest 434 499 33,400 -3,120 Descending FlightAware ADS-B (YPLB)
07:05PM -33.8810 152.8179 226° Southwest 431 496 31,800 -2,640 Descending FlightAware ADS-B (YRPA)
07:05PM -33.9304 152.7563 226° Southwest 422 486 30,400 -2,400 Descending FlightAware ADS-B (YPLB)
07:06PM -33.9722 152.7040 226° Southwest 413 475 29,100 -2,460 Descending FlightAware ADS-B (YPLB)
07:06PM -34.0130 152.6526 226° Southwest 406 467 27,900 -2,340 Descending FlightAware ADS-B (YPLB)
07:07PM -34.0623 152.5892 230° Southwest 391 450 26,400 -2,340 Descending FlightAware ADS-B (YPLB)
07:07PM -34.0713 152.5703 243° Southwest 382 440 26,000 -2,040 Descending FlightAware ADS-B (YPLB)
07:07PM -34.0766 152.5502 255° West 376 433 25,700 -2,100 Descending FlightAware ADS-B (YPLB)
07:08PM -34.0783 152.5294 268° West 373 429 25,300 -2,460 Descending FlightAware ADS-B (YPLB)
07:08PM -34.0718 152.4517 276° West 367 422 23,800 -2,220 Descending FlightAware ADS-B (YPLB)
07:09PM -34.0655 152.3858 276° West 360 414 22,700 -2,220 Descending FlightAware ADS-B (YPLB)
07:09PM -34.0589 152.3196 277° West 355 409 21,300 -2,160 Descending FlightAware ADS-B
07:10PM -34.0531 152.2605 277° West 355 409 20,300 -1,920 Descending FlightAware ADS-B
07:10PM -34.0515 152.2426 276° West 355 409 20,100 -2,160 Descending FlightAware ADS-B (YPLB)
07:11PM -34.0453 152.1766 276° West 351 404 18,900 -2,220 Descending FlightAware ADS-B
07:11PM -34.0393 152.1141 276° West 344 396 17,700 -2,400 Descending FlightAware ADS-B (YPLB)
07:11PM -34.0362 152.0831 277° West 343 395 16,900 -2,040 Descending FlightAware ADS-B
07:12PM -34.0298 152.0193 277° West 336 387 16,000 -1,860 Descending FlightAware ADS-B (YPLB)
07:13PM -34.0229 151.9508 277° West 332 382 14,800 -2,040 Descending FlightAware ADS-B
07:13PM -34.0176 151.8963 277° West 326 375 13,800 -2,340 Descending FlightAware ADS-B
07:13PM -34.0172 151.8926 277° West 326 375 13,500 -2,700 Descending FlightAware ADS-B
07:14PM -34.0106 151.8271 277° West 336 387 12,000 -1,920 Descending FlightAware ADS-B
07:14PM -34.0042 151.7658 277° West 320 368 11,300 -1,560 Descending FlightAware ADS-B (YPLB)
07:15PM -33.9988 151.7127 276° West 314 361 10,400 -1,380 Descending FlightAware ADS-B (YPLB)
07:15PM -33.9943 151.6668 276° West 296 341 10,000 -900 Descending FlightAware ADS-B (YPLB)
07:16PM -33.9912 151.6375 277° West 283 326 9,700 -1,260 Descending FlightAware ADS-B
07:16PM -33.9876 151.6035 277° West 278 320 9,200 -1,380 Descending FlightAware ADS-B
07:16PM -33.9844 151.5735 277° West 271 312 8,800 -900 Descending FlightAware ADS-B
07:17PM -33.9821 151.5512 277° West 268 308 8,600 -780 Descending FlightAware ADS-B
07:17PM -33.9797 151.5287 277° West 272 313 8,300 -900 Descending FlightAware ADS-B (YSSY / SYD)
07:17PM -33.9749 151.4849 278° West 273 314 8,000 -780 Descending FlightAware ADS-B
07:18PM -33.9713 151.4538 278° West 274 315 7,800 -660 Descending FlightAware ADS-B
07:18PM -33.9678 151.4251 278° West 274 315 7,600 -780 Descending FlightAware ADS-B (YSSY / SYD)
07:18PM -33.9645 151.3950 277° West 275 316 7,300 -900 Descending FlightAware ADS-B
07:18PM -33.9620 151.3718 278° West 276 318 7,100 -600 Descending FlightAware ADS-B (YRAY)
07:19PM -33.9594 151.3476 277° West 279 321 7,000 -480 Descending FlightAware ADS-B
07:19PM -33.9576 151.3309 278° West 281 323 6,900 -420 Descending FlightAware ADS-B (YRPA)
07:19PM -33.9543 151.3036 282° West 279 321 6,800 -540 Descending FlightAware ADS-B
07:19PM -33.9536 151.3004 296° West 280 322 6,700 -480 Descending FlightAware ADS-B
07:19PM -33.9458 151.2821 306° West 279 321 6,700 -420 Level FlightAware ADS-B (YPLB)
07:20PM -33.9413 151.2765 315° West 281 323 6,600 -900 Descending FlightAware ADS-B
07:20PM -33.9317 151.2686 331° Northwest 282 325 6,500 -600 Descending FlightAware ADS-B (YRAY)
07:20PM -33.9264 151.2659 338° Northwest 283 326 6,500 -540 Level FlightAware ADS-B (YRAY)
07:20PM -33.9180 151.2634 349° North 283 326 6,400 -660 Descending FlightAware ADS-B (YSSY / SYD)
07:20PM -33.8899 151.2586 352° North 283 326 6,200 -600 Descending FlightAware ADS-B
07:21PM -33.8667 151.2549 353° North 274 315 6,000 -720 Descending FlightAware ADS-B
07:21PM -33.8448 151.2515 353° North 264 304 5,800 -600 Descending FlightAware ADS-B (YSSY / SYD)
07:21PM -33.8380 151.2504 352° North 261 300 5,800 -840 Level FlightAware ADS-B (YPLB)
07:21PM -33.8180 151.2473 353° North 251 289 5,500 -1,140 Descending FlightAware ADS-B (YRAY)
07:21PM -33.8006 151.2445 352° North 244 281 5,200 -1,020 Descending FlightAware ADS-B (YRAY)
07:22PM -33.7851 151.2420 352° North 240 276 5,000 -840 Descending FlightAware ADS-B
07:22PM -33.7618 151.2383 352° North 235 270 4,700 -780 Descending FlightAware ADS-B
07:22PM -33.7493 151.2363 352° North 231 266 4,600 -900 Descending FlightAware ADS-B (YPLB)
07:22PM -33.7392 151.2347 352° North 229 264 4,400 -1,080 Descending FlightAware ADS-B (YPLB)
07:23PM -33.7199 151.2317 353° North 227 261 4,100 -1,140 Descending FlightAware ADS-B
07:23PM -33.7094 151.2301 353° North 215 247 3,900 -960 Descending FlightAware ADS-B (YRAY)
07:23PM -33.6930 151.2276 352° North 210 242 3,700 -600 Descending FlightAware ADS-B (YRAY)
07:23PM -33.6794 151.2255 353° North 208 239 3,600 -180 Descending FlightAware ADS-B
07:24PM -33.6615 151.2228 352° North 196 226 3,600  Level FlightAware ADS-B
07:24PM -33.6539 151.2205 335° Northwest 194 223 3,600  Level FlightAware ADS-B (YSSY / SYD)
07:24PM -33.6520 151.2194 337° Northwest 194 223 3,600 -480 Level FlightAware ADS-B (YPLB)
07:24PM -33.6460 151.2135 311° West 195 224 3,500 -720 Descending FlightAware ADS-B
07:24PM -33.6418 151.2040 289° West 194 223 3,400 -480 Descending FlightAware ADS-B (YRPA)
07:24PM -33.6412 151.2003 282° West 193 222 3,400  Level FlightAware ADS-B (YPLB)
07:24PM -33.6412 151.1923 268° West 189 217 3,400 -420 Level FlightAware ADS-B
07:25PM -33.6427 151.1842 260° West 187 215 3,300 -540 Descending FlightAware ADS-B (YRAY)
07:25PM -33.6436 151.1819 248° West 184 212 3,300  Level FlightAware ADS-B (YPLB)
07:25PM -33.6474 151.1761 230° Southwest 176 203 3,300 -600 Level FlightAware ADS-B (YRAY)
07:25PM -33.6508 151.1731 215° Southwest 179 206 3,200 -540 Descending FlightAware ADS-B (YPLB)
07:25PM -33.6553 151.1709 199° South 178 205 3,200 -240 Level FlightAware ADS-B (YRAY)
07:25PM -33.6703 151.1665 193° South 181 208 3,100 -240 Descending FlightAware ADS-B (YRPA)
07:25PM -33.6831 151.1629 193° South 183 211 3,100 -240 Level FlightAware ADS-B (YPLB)
07:26PM -33.6944 151.1598 193° South 186 214 3,000 -300 Descending FlightAware ADS-B
07:26PM -33.7033 151.1574 192° South 185 213 3,000 -540 Level FlightAware ADS-B (YPLB)
07:26PM -33.7170 151.1537 192° South 185 213 2,800 -420 Descending FlightAware ADS-B (YPLB)
07:26PM -33.7298 151.1502 193° South 182 209 2,800  Level FlightAware ADS-B
07:27PM -33.7439 151.1462 194° South 170 196 2,800  Level FlightAware ADS-B (YRAY)
07:27PM -33.7555 151.1431 192° South 176 203 2,800  Level FlightAware ADS-B (YPLB)
07:27PM -33.7605 151.1425 182° South 176 203 2,800  Level FlightAware ADS-B (YRAY)
07:27PM -33.7735 151.1436 174° South 177 204 2,800  Level FlightAware ADS-B (YPLB)
07:27PM -33.7765 151.1439 174° South 176 203 2,800  Level FlightAware ADS-B (YRAY)
07:28PM -33.7901 151.1464 169° South 169 194 2,800 -180 Level FlightAware ADS-B (YPLB)
07:28PM -33.8022 151.1497 167° South 168 193 2,700 -540 Descending FlightAware ADS-B (YSSY / SYD)
07:28PM -33.8157 151.1535 167° South 165 190 2,500 -780 Descending FlightAware ADS-B (YRAY)
07:28PM -33.8266 151.1564 167° South 166 191 2,300 -900 Descending FlightAware ADS-B (YPLB)
07:29PM -33.8421 151.1604 167° South 166 191 2,000 -960 Descending FlightAware ADS-B (YPLB)
07:29PM -33.8518 151.1629 167° South 148 170 1,800 -900 Descending FlightAware ADS-B (YRAY)
07:29PM -33.8619 151.1655 167° South 147 169 1,600 -900 Descending FlightAware ADS-B (YPLB)
07:29PM -33.8693 151.1674 167° South 144 166 1,400 -840 Descending FlightAware ADS-B (YPLB)
07:30PM -33.8786 151.1698 168° South 142 163 1,200 -720 Descending FlightAware ADS-B
07:30PM -33.8914 151.1731 168° South 141 162 1,000 -780 Descending FlightAware ADS-B (YSSY / SYD)
07:30PM -33.8940 151.1738 167° South 141 162 800 -780 Descending FlightAware ADS-B (YPLB)
07:31PM -33.9114 151.1784 168° South 142 163 600 -720 Descending FlightAware ADS-B
07:31PM -33.9233 151.1815 168° South 137 158 400 -780 Descending FlightAware ADS-B (YRAY)
07:31PM -33.9367 151.1849 168° South 139 160 100 -840 Descending FlightAware ADS-B
07:31PM -33.9457 151.1873 168° South 139 160 -540 Descending FlightAware ADS-B (YRPA)